createdAt,value
2018-12-31T00:03:56.122Z,21.43
2018-12-31T00:06:21.885Z,17.27
2018-12-31T00:08:47.685Z,21.33
2018-12-31T00:11:13.456Z,13.83
2018-12-31T00:16:24.788Z,15.33
2018-12-31T00:18:50.589Z,14.33
2018-12-31T00:21:16.366Z,13.60
2018-12-31T00:23:42.127Z,14.07
2018-12-31T00:26:07.925Z,21.70
2018-12-31T00:28:33.683Z,13.00
2018-12-31T00:30:59.439Z,17.43
2018-12-31T00:33:25.212Z,14.73
2018-12-31T00:35:50.969Z,14.53
2018-12-31T00:38:16.734Z,31.33
2018-12-31T00:40:42.525Z,14.63
2018-12-31T00:43:08.417Z,16.90
2018-12-31T00:45:34.198Z,19.27
2018-12-31T00:47:59.981Z,15.60
2018-12-31T00:50:26.995Z,17.00
2018-12-31T00:52:53.428Z,14.87
2018-12-31T00:58:26.422Z,15.70
2018-12-31T01:00:52.247Z,15.20
2018-12-31T01:03:18.029Z,15.03
2018-12-31T01:05:43.831Z,16.87
2018-12-31T01:08:09.609Z,29.27
2018-12-31T01:10:35.467Z,20.60
2018-12-31T01:13:01.234Z,25.23
2018-12-31T01:15:26.996Z,17.47
2018-12-31T01:17:53.440Z,17.90
2018-12-31T01:20:19.256Z,18.23
2018-12-31T01:22:44.990Z,18.40
2018-12-31T01:25:11.585Z,22.63
2018-12-31T01:27:37.345Z,19.93
2018-12-31T01:30:44.771Z,25.60
2018-12-31T01:33:10.542Z,19.37
2018-12-31T01:35:36.302Z,41.80
2018-12-31T01:38:02.080Z,26.40
2018-12-31T01:40:28.496Z,19.13
2018-12-31T01:42:54.234Z,19.30
2018-12-31T01:45:20.063Z,19.37
2018-12-31T01:47:45.841Z,19.53
2018-12-31T01:50:11.642Z,18.03
2018-12-31T01:52:37.412Z,17.60
2018-12-31T01:55:44.877Z,18.53
2018-12-31T01:58:10.663Z,17.50
2018-12-31T02:00:36.438Z,19.20
2018-12-31T02:03:02.207Z,41.17
2018-12-31T02:05:27.995Z,28.63
2018-12-31T02:07:53.749Z,21.33
2018-12-31T02:10:19.656Z,25.23
2018-12-31T02:13:27.211Z,19.87
2018-12-31T02:15:53.002Z,20.07
2018-12-31T02:18:19.362Z,21.23
2018-12-31T02:20:45.137Z,19.37
2018-12-31T02:23:10.890Z,20.47
2018-12-31T02:25:36.657Z,20.17
2018-12-31T02:28:02.620Z,21.40
2018-12-31T02:30:28.380Z,23.87
2018-12-31T02:32:54.819Z,23.27
2018-12-31T02:35:20.688Z,27.83
2018-12-31T02:37:46.546Z,40.17
2018-12-31T02:40:32.636Z,25.60
2018-12-31T02:42:58.417Z,30.03
2018-12-31T02:45:24.176Z,31.40
2018-12-31T02:47:49.974Z,21.00
2018-12-31T02:50:15.729Z,42.43
2018-12-31T02:52:41.498Z,43.17
2018-12-31T02:55:07.272Z,40.97
2018-12-31T02:57:33.050Z,25.97
2018-12-31T02:59:59.160Z,39.43
2018-12-31T03:02:26.485Z,20.33
2018-12-31T03:04:52.263Z,21.67
2018-12-31T03:07:18.276Z,22.53
2018-12-31T03:09:44.054Z,23.00
2018-12-31T03:12:09.841Z,20.17
2018-12-31T03:14:35.594Z,23.13
2018-12-31T03:17:01.382Z,23.47
2018-12-31T03:19:27.138Z,22.70
2018-12-31T03:21:53.068Z,24.47
2018-12-31T03:24:18.838Z,27.47
2018-12-31T03:26:44.614Z,25.23
2018-12-31T03:29:10.401Z,23.83
2018-12-31T03:31:36.180Z,25.00
2018-12-31T03:34:02.192Z,24.63
2018-12-31T03:36:27.938Z,25.40
2018-12-31T03:38:54.562Z,27.83
2018-12-31T03:41:20.342Z,30.03
2018-12-31T03:43:46.120Z,28.63
2018-12-31T03:46:12.056Z,30.53
2018-12-31T03:48:38.343Z,29.83
2018-12-31T03:51:04.165Z,30.60
2018-12-31T03:53:29.946Z,30.50
2018-12-31T03:55:55.716Z,30.40
2018-12-31T03:58:21.492Z,31.83
2018-12-31T04:00:47.256Z,34.07
2018-12-31T04:03:13.030Z,33.70
2018-12-31T04:05:39.033Z,31.97
2018-12-31T04:08:04.783Z,33.97
2018-12-31T04:10:30.737Z,34.90
2018-12-31T04:12:56.590Z,34.53
2018-12-31T04:15:22.372Z,34.07
2018-12-31T04:17:48.171Z,34.80
2018-12-31T04:20:13.951Z,33.73
2018-12-31T04:22:39.704Z,35.53
2018-12-31T04:25:05.481Z,34.80
2018-12-31T04:27:31.253Z,34.10
2018-12-31T04:29:57.026Z,37.47
2018-12-31T04:32:22.788Z,34.77
2018-12-31T04:34:48.558Z,36.30
2018-12-31T04:37:14.319Z,40.67
2018-12-31T04:39:40.097Z,40.97
2018-12-31T04:42:05.850Z,37.17
2018-12-31T04:44:31.621Z,36.50
2018-12-31T04:46:57.396Z,34.97
2018-12-31T04:49:23.180Z,39.20
2018-12-31T04:51:48.982Z,37.63
2018-12-31T04:54:14.735Z,37.40
2018-12-31T04:56:40.517Z,37.90
2018-12-31T04:59:06.283Z,38.87
2018-12-31T05:01:32.065Z,37.13
2018-12-31T05:03:57.841Z,38.20
2018-12-31T05:06:23.617Z,40.30
2018-12-31T05:08:49.374Z,39.53
2018-12-31T05:11:15.155Z,36.83
2018-12-31T05:13:40.911Z,36.53
2018-12-31T05:16:06.684Z,37.90
2018-12-31T05:18:32.443Z,47.33
2018-12-31T05:20:58.248Z,41.40
2018-12-31T05:23:24.021Z,41.73
2018-12-31T05:25:49.797Z,48.50
2018-12-31T05:28:15.580Z,51.77
2018-12-31T05:30:41.359Z,50.40
2018-12-31T05:33:07.121Z,46.40
2018-12-31T05:35:32.891Z,43.87
2018-12-31T05:37:58.670Z,44.23
2018-12-31T05:40:24.428Z,42.57
2018-12-31T05:42:50.203Z,42.50
2018-12-31T05:45:15.971Z,43.00
2018-12-31T05:47:41.748Z,44.07
2018-12-31T05:50:07.506Z,43.90
2018-12-31T05:52:33.282Z,44.13
2018-12-31T05:54:59.036Z,41.93
2018-12-31T05:57:24.831Z,42.13
2018-12-31T05:59:50.604Z,42.97
2018-12-31T06:02:16.380Z,41.60
2018-12-31T06:04:42.210Z,42.13
2018-12-31T06:07:07.944Z,41.77
2018-12-31T06:09:33.731Z,43.17
2018-12-31T06:11:59.510Z,43.17
2018-12-31T06:14:25.283Z,41.50
2018-12-31T06:16:51.060Z,41.47
2018-12-31T06:19:16.822Z,40.83
2018-12-31T06:21:42.645Z,44.33
2018-12-31T06:24:08.402Z,46.10
2018-12-31T06:26:34.181Z,45.33
2018-12-31T06:28:59.972Z,42.00
2018-12-31T06:31:25.750Z,43.73
2018-12-31T06:33:51.547Z,44.57
2018-12-31T06:36:17.309Z,43.57
2018-12-31T06:38:43.096Z,43.67
2018-12-31T06:41:08.837Z,46.80
2018-12-31T06:43:34.629Z,47.93
2018-12-31T06:46:00.394Z,44.10
2018-12-31T06:48:26.192Z,45.97
2018-12-31T06:50:51.966Z,44.33
2018-12-31T06:53:17.743Z,45.93
2018-12-31T06:55:43.505Z,46.13
2018-12-31T06:58:09.286Z,47.30
2018-12-31T07:00:54.946Z,45.53
2018-12-31T07:03:20.739Z,46.30
2018-12-31T07:05:46.495Z,44.97
2018-12-31T07:08:12.284Z,47.17
2018-12-31T07:10:38.055Z,45.57
2018-12-31T07:13:03.829Z,47.80
2018-12-31T07:15:29.601Z,55.53
2018-12-31T07:17:55.359Z,50.80
2018-12-31T07:20:21.151Z,52.67
2018-12-31T07:22:46.908Z,54.07
2018-12-31T07:25:12.692Z,51.27
2018-12-31T07:27:38.466Z,51.23
2018-12-31T07:33:17.529Z,55.97
2018-12-31T07:35:43.329Z,51.17
2018-12-31T07:38:09.086Z,45.83
2018-12-31T07:40:34.856Z,46.33
2018-12-31T07:43:00.616Z,45.77
2018-12-31T07:45:26.386Z,45.80
2018-12-31T07:47:52.167Z,53.07
2018-12-31T07:50:17.953Z,44.40
2018-12-31T07:52:43.730Z,42.63
2018-12-31T07:55:09.512Z,43.67
2018-12-31T07:57:35.278Z,43.43
2018-12-31T08:00:01.189Z,43.27
2018-12-31T08:02:26.948Z,37.23
2018-12-31T08:07:26.212Z,40.70
2018-12-31T08:09:51.984Z,39.03
2018-12-31T08:12:17.765Z,41.90
2018-12-31T08:14:43.552Z,37.40
2018-12-31T08:17:09.323Z,36.07
2018-12-31T08:19:35.086Z,36.47
2018-12-31T08:22:00.881Z,38.27
2018-12-31T08:24:26.636Z,36.90
2018-12-31T08:26:52.422Z,36.27
2018-12-31T08:29:18.177Z,39.50
2018-12-31T08:31:43.946Z,39.63
2018-12-31T08:34:09.729Z,40.13
2018-12-31T08:36:35.516Z,43.23
2018-12-31T08:39:01.276Z,36.77
2018-12-31T08:41:27.050Z,38.60
2018-12-31T08:43:52.832Z,36.50
2018-12-31T08:46:18.632Z,39.77
2018-12-31T08:48:44.405Z,49.73
2018-12-31T08:51:10.192Z,39.33
2018-12-31T08:53:35.959Z,38.03
2018-12-31T08:56:01.752Z,42.50
2018-12-31T08:58:27.510Z,51.20
2018-12-31T09:00:53.266Z,42.80
2018-12-31T09:03:19.042Z,40.57
2018-12-31T09:05:44.822Z,38.90
2018-12-31T09:08:10.593Z,43.10
2018-12-31T09:10:36.367Z,43.80
2018-12-31T09:13:02.134Z,39.63
2018-12-31T09:15:27.900Z,41.73
2018-12-31T09:17:53.699Z,44.03
2018-12-31T09:20:19.460Z,45.23
2018-12-31T09:22:45.242Z,43.27
2018-12-31T09:25:10.994Z,37.90
2018-12-31T09:27:36.761Z,39.87
2018-12-31T09:30:44.212Z,34.47
2018-12-31T09:33:09.990Z,43.30
2018-12-31T09:35:35.742Z,36.67
2018-12-31T09:38:01.520Z,41.07
2018-12-31T09:40:27.308Z,37.10
2018-12-31T09:42:53.085Z,35.07
2018-12-31T09:45:18.868Z,40.17
2018-12-31T09:47:44.648Z,38.13
2018-12-31T09:50:10.418Z,46.80
2018-12-31T09:52:36.200Z,39.83
2018-12-31T09:55:43.649Z,35.53
2018-12-31T09:58:09.428Z,37.20
2018-12-31T10:00:35.207Z,32.70
2018-12-31T10:03:01.024Z,33.00
2018-12-31T10:05:26.800Z,33.87
2018-12-31T10:07:52.562Z,33.93
2018-12-31T10:10:18.349Z,35.40
2018-12-31T10:12:44.114Z,32.33
2018-12-31T10:15:09.904Z,32.43
2018-12-31T10:17:35.676Z,28.00
2018-12-31T10:20:01.459Z,29.83
2018-12-31T10:22:27.233Z,28.43
2018-12-31T10:24:53.014Z,28.40
2018-12-31T10:27:18.805Z,26.63
2018-12-31T10:29:44.549Z,27.13
2018-12-31T10:32:10.323Z,25.30
2018-12-31T10:34:36.098Z,23.27
2018-12-31T10:37:01.864Z,25.60
2018-12-31T10:39:27.651Z,22.90
2018-12-31T10:41:53.421Z,24.03
2018-12-31T10:44:19.191Z,25.37
2018-12-31T10:46:45.236Z,22.03
2018-12-31T10:49:12.669Z,24.33
2018-12-31T10:51:38.444Z,27.50
2018-12-31T10:54:04.203Z,24.63
2018-12-31T10:56:29.995Z,24.73
2018-12-31T10:58:55.778Z,25.27
2018-12-31T11:01:21.638Z,23.17
2018-12-31T11:03:47.448Z,24.33
2018-12-31T11:06:13.217Z,24.33
2018-12-31T11:08:38.988Z,23.27
2018-12-31T11:11:04.770Z,22.73
2018-12-31T11:13:30.519Z,22.17
2018-12-31T11:15:56.291Z,21.63
2018-12-31T11:18:22.086Z,21.57
2018-12-31T11:20:48.597Z,18.17
2018-12-31T11:23:14.351Z,16.83
2018-12-31T11:25:40.214Z,16.40
2018-12-31T11:28:06.069Z,16.50
2018-12-31T11:30:31.852Z,16.40
2018-12-31T11:32:57.623Z,30.93
2018-12-31T11:35:23.382Z,19.63
2018-12-31T11:37:49.157Z,15.70
2018-12-31T11:40:14.917Z,14.70
2018-12-31T11:42:40.699Z,16.83
2018-12-31T11:45:06.455Z,17.30
2018-12-31T11:47:32.236Z,16.30
2018-12-31T11:49:59.635Z,16.73
2018-12-31T11:52:25.698Z,18.60
2018-12-31T11:54:51.445Z,20.10
2018-12-31T11:57:17.209Z,21.23
2018-12-31T11:59:42.967Z,20.27
2018-12-31T12:02:08.770Z,17.37
2018-12-31T12:04:35.421Z,16.13
2018-12-31T12:07:02.016Z,13.43
2018-12-31T12:09:28.234Z,15.20
2018-12-31T12:11:54.022Z,14.43
2018-12-31T12:14:20.223Z,17.10
2018-12-31T12:16:46.009Z,15.40
2018-12-31T12:19:11.799Z,15.57
2018-12-31T12:21:37.560Z,16.30
2018-12-31T12:24:03.330Z,17.83
2018-12-31T12:26:29.088Z,16.00
2018-12-31T12:28:54.868Z,15.63
2018-12-31T12:31:20.628Z,15.70
2018-12-31T12:33:48.313Z,14.33
2018-12-31T12:36:14.071Z,16.10
2018-12-31T12:38:39.840Z,12.93
2018-12-31T12:41:05.602Z,14.63
2018-12-31T12:43:31.388Z,15.03
2018-12-31T12:45:57.152Z,13.10
2018-12-31T12:48:24.829Z,12.70
2018-12-31T12:50:50.591Z,11.87
2018-12-31T12:53:16.376Z,10.53
2018-12-31T12:55:42.141Z,12.13
2018-12-31T12:58:07.937Z,11.20
2018-12-31T13:00:33.870Z,11.10
2018-12-31T13:05:46.044Z,14.97
2018-12-31T13:08:11.819Z,20.20
2018-12-31T13:10:37.577Z,19.47
2018-12-31T13:13:03.338Z,24.00
2018-12-31T13:15:31.010Z,15.93
2018-12-31T13:17:56.790Z,16.80
2018-12-31T13:20:22.569Z,15.63
2018-12-31T13:22:48.321Z,14.77
2018-12-31T13:25:14.110Z,12.73
2018-12-31T13:27:39.872Z,12.37
2018-12-31T13:30:10.520Z,13.23
2018-12-31T13:32:35.225Z,10.20
2018-12-31T13:35:01.010Z,10.70
2018-12-31T13:37:26.862Z,11.60
2018-12-31T13:39:52.636Z,11.47
2018-12-31T13:42:20.332Z,10.83
2018-12-31T13:44:46.085Z,11.13
2018-12-31T13:47:31.747Z,11.70
2018-12-31T13:49:57.542Z,15.00
2018-12-31T13:52:23.308Z,10.20
2018-12-31T13:54:49.141Z,10.40
2018-12-31T13:57:16.813Z,9.50
2018-12-31T13:59:42.586Z,10.10
2018-12-31T14:02:08.369Z,9.87
2018-12-31T14:04:34.199Z,10.13
2018-12-31T14:06:59.958Z,9.30
2018-12-31T14:09:25.721Z,9.27
2018-12-31T14:11:53.509Z,8.43
2018-12-31T14:14:19.264Z,9.00
2018-12-31T14:16:45.027Z,8.40
2018-12-31T14:19:10.776Z,8.00
2018-12-31T14:21:36.583Z,9.27
2018-12-31T14:24:02.342Z,18.43
2018-12-31T14:26:28.109Z,8.90
2018-12-31T14:28:53.869Z,9.03
2018-12-31T14:31:19.647Z,9.47
2018-12-31T14:33:45.401Z,10.47
2018-12-31T14:36:11.257Z,10.23
2018-12-31T14:38:37.012Z,9.50
2018-12-31T14:41:02.786Z,9.90
2018-12-31T14:43:30.445Z,9.67
2018-12-31T14:45:56.244Z,11.73
2018-12-31T14:48:22.126Z,10.43
2018-12-31T14:50:47.882Z,9.90
2018-12-31T14:53:13.645Z,9.67
2018-12-31T14:55:39.413Z,10.83
2018-12-31T14:58:05.300Z,10.20
2018-12-31T15:00:31.068Z,8.67
2018-12-31T15:02:56.852Z,9.77
2018-12-31T15:05:22.633Z,10.00
2018-12-31T15:07:48.409Z,9.43
2018-12-31T15:10:55.882Z,8.80
2018-12-31T15:13:21.664Z,8.87
2018-12-31T15:15:47.428Z,7.87
2018-12-31T15:18:13.204Z,6.83
2018-12-31T15:20:38.963Z,6.77
2018-12-31T15:23:04.734Z,6.07
2018-12-31T15:25:30.497Z,6.70
2018-12-31T15:27:56.286Z,6.23
2018-12-31T15:30:22.061Z,7.03
2018-12-31T15:32:47.837Z,6.20
2018-12-31T15:35:13.665Z,5.87
2018-12-31T15:37:41.380Z,6.13
2018-12-31T15:43:34.212Z,6.83
2018-12-31T15:45:59.970Z,8.20
2018-12-31T15:48:25.752Z,8.20
2018-12-31T15:50:51.531Z,8.33
2018-12-31T15:53:17.336Z,8.97
2018-12-31T15:56:04.886Z,7.27
2018-12-31T15:58:30.679Z,7.73
2018-12-31T16:00:56.433Z,7.83
2018-12-31T16:03:22.226Z,10.13
2018-12-31T16:05:47.992Z,10.67
2018-12-31T16:08:13.772Z,11.50
2018-12-31T16:10:39.527Z,16.87
2018-12-31T16:13:05.304Z,19.13
2018-12-31T16:15:31.076Z,13.17
2018-12-31T16:17:56.840Z,12.23
2018-12-31T16:20:22.612Z,11.43
2018-12-31T16:22:50.300Z,13.07
2018-12-31T16:25:16.069Z,13.87
2018-12-31T16:27:41.844Z,12.70
2018-12-31T16:30:07.614Z,13.13
2018-12-31T16:32:33.386Z,13.63
2018-12-31T16:34:59.161Z,12.53
2018-12-31T16:37:24.933Z,16.83
2018-12-31T16:39:52.617Z,18.40
2018-12-31T16:42:18.393Z,16.67
2018-12-31T16:44:44.177Z,13.50
2018-12-31T16:47:09.954Z,12.97
2018-12-31T16:49:35.727Z,12.63
2018-12-31T16:52:02.764Z,13.00
2018-12-31T16:54:29.224Z,13.37
2018-12-31T16:56:55.001Z,13.90
2018-12-31T16:59:20.779Z,15.30
2018-12-31T17:01:46.670Z,15.53
2018-12-31T17:04:12.463Z,15.77
2018-12-31T17:06:38.229Z,16.40
2018-12-31T17:09:45.701Z,14.30
2018-12-31T17:12:11.489Z,15.83
2018-12-31T17:14:37.243Z,15.77
2018-12-31T17:17:03.025Z,16.33
2018-12-31T17:19:28.784Z,14.77
2018-12-31T17:21:54.553Z,18.73
2018-12-31T17:24:20.312Z,18.03
2018-12-31T17:26:46.075Z,20.20
2018-12-31T17:29:11.853Z,21.50
2018-12-31T17:31:37.617Z,21.67
2018-12-31T17:34:03.494Z,23.33
2018-12-31T17:36:29.258Z,25.87
2018-12-31T17:38:55.047Z,31.20
2018-12-31T17:41:20.816Z,27.43
2018-12-31T17:43:46.600Z,29.67
2018-12-31T17:46:12.395Z,24.73
2018-12-31T17:48:38.172Z,27.43
2018-12-31T17:51:04.130Z,29.17
2018-12-31T17:53:29.911Z,24.37
2018-12-31T17:55:55.673Z,23.80
2018-12-31T17:58:21.467Z,28.87
2018-12-31T18:00:47.223Z,22.37
2018-12-31T18:03:13.017Z,24.87
2018-12-31T18:05:38.797Z,24.13
2018-12-31T18:08:06.490Z,24.83
2018-12-31T18:10:32.247Z,23.70
2018-12-31T18:12:58.035Z,22.00
2018-12-31T18:15:23.805Z,22.43
2018-12-31T18:17:49.566Z,22.27
2018-12-31T18:20:15.353Z,20.63
2018-12-31T18:22:43.020Z,21.10
2018-12-31T18:25:08.883Z,19.20
2018-12-31T18:27:34.634Z,22.53
2018-12-31T18:30:00.405Z,22.73
2018-12-31T18:32:26.184Z,21.83
2018-12-31T18:34:51.958Z,17.57
2018-12-31T18:37:17.716Z,16.27
2018-12-31T18:39:49.180Z,16.30
2018-12-31T18:42:11.179Z,16.97
2018-12-31T18:44:36.945Z,17.07
2018-12-31T18:47:02.713Z,16.40
2018-12-31T18:49:28.511Z,16.47
2018-12-31T18:51:54.286Z,16.40
2018-12-31T18:54:21.963Z,16.50
2018-12-31T18:56:47.737Z,16.20
2018-12-31T18:59:13.502Z,24.77
2018-12-31T19:01:39.290Z,17.60
2018-12-31T19:04:05.062Z,15.73
2018-12-31T19:06:30.835Z,14.80
2018-12-31T19:08:56.635Z,15.10
2018-12-31T19:11:24.300Z,22.33
2018-12-31T19:13:50.057Z,15.83
2018-12-31T19:16:15.843Z,14.93
2018-12-31T19:18:41.606Z,15.50
2018-12-31T19:21:07.383Z,14.73
2018-12-31T19:23:33.151Z,13.87
2018-12-31T19:25:58.929Z,14.47
2018-12-31T19:28:24.681Z,14.80
2018-12-31T19:30:50.465Z,14.80
2018-12-31T19:33:16.248Z,14.80
2018-12-31T19:35:42.040Z,15.83
2018-12-31T19:38:07.798Z,16.57
2018-12-31T19:40:33.584Z,16.73
2018-12-31T19:42:59.351Z,18.53
2018-12-31T19:45:25.142Z,16.03
2018-12-31T19:47:50.897Z,16.17
2018-12-31T19:50:16.686Z,16.30
2018-12-31T19:52:42.436Z,15.57
2018-12-31T19:55:08.203Z,17.20
2018-12-31T19:57:33.981Z,16.00
2018-12-31T20:02:55.610Z,12.97
2018-12-31T20:05:21.382Z,14.40
2018-12-31T20:07:47.144Z,13.90
2018-12-31T20:10:13.140Z,12.93
2018-12-31T20:12:38.898Z,13.80
2018-12-31T20:15:04.661Z,13.67
2018-12-31T20:17:30.429Z,14.23
2018-12-31T20:19:56.216Z,13.03
2018-12-31T20:22:21.990Z,13.00
2018-12-31T20:24:47.762Z,21.10
2018-12-31T20:27:15.436Z,13.13
2018-12-31T20:29:41.187Z,13.53
2018-12-31T20:32:06.962Z,13.93
2018-12-31T20:34:32.725Z,15.33
2018-12-31T20:36:58.505Z,14.23
2018-12-31T20:39:24.278Z,15.33
2018-12-31T20:41:50.046Z,18.07
2018-12-31T20:44:15.802Z,15.07
2018-12-31T20:46:41.571Z,14.50
2018-12-31T20:49:07.339Z,20.33
2018-12-31T20:51:33.117Z,16.97
2018-12-31T20:53:58.875Z,15.33
2018-12-31T20:56:24.649Z,18.43
2018-12-31T20:58:50.412Z,16.40
2018-12-31T21:03:47.934Z,14.93
2018-12-31T21:06:13.702Z,14.33
2018-12-31T21:08:39.487Z,14.60
2018-12-31T21:11:25.143Z,13.33
2018-12-31T21:13:51.218Z,14.07
2018-12-31T21:16:16.974Z,13.30
2018-12-31T21:18:42.751Z,11.93
2018-12-31T21:21:08.529Z,9.47
2018-12-31T21:23:34.329Z,10.20
2018-12-31T21:26:00.094Z,11.97
2018-12-31T21:28:25.884Z,10.33
2018-12-31T21:30:53.563Z,10.73
2018-12-31T21:33:19.342Z,10.77
2018-12-31T21:35:45.123Z,14.97
2018-12-31T21:38:10.907Z,20.43
2018-12-31T21:40:36.661Z,20.57
2018-12-31T21:43:02.432Z,19.63
2018-12-31T21:45:28.212Z,15.80
2018-12-31T21:47:55.897Z,12.10
2018-12-31T21:50:21.671Z,26.13
2018-12-31T21:52:47.823Z,10.73
2018-12-31T21:55:15.120Z,8.27
2018-12-31T21:57:40.868Z,9.60
2018-12-31T22:00:48.308Z,9.83
2018-12-31T22:03:14.109Z,70.80
2018-12-31T22:05:39.891Z,14.57
2018-12-31T22:08:05.662Z,7.70
2018-12-31T22:10:33.319Z,8.23
2018-12-31T22:12:59.113Z,7.07
2018-12-31T22:15:24.881Z,7.10
2018-12-31T22:17:58.401Z,8.27
2018-12-31T22:20:24.197Z,7.37
2018-12-31T22:22:49.969Z,7.77
2018-12-31T22:25:17.672Z,6.93
2018-12-31T22:27:43.423Z,6.77
2018-12-31T22:30:09.194Z,6.87
2018-12-31T22:32:35.064Z,6.90
2018-12-31T22:35:00.844Z,6.40
2018-12-31T22:37:26.608Z,6.70
2018-12-31T22:39:52.435Z,6.47
2018-12-31T22:45:05.709Z,6.90
2018-12-31T22:47:31.479Z,6.73
2018-12-31T22:49:57.269Z,6.60
2018-12-31T22:52:23.012Z,8.13
2018-12-31T22:54:48.780Z,6.57
2018-12-31T22:57:14.540Z,5.87
2018-12-31T22:59:40.323Z,8.00
2018-12-31T23:02:06.171Z,15.23
2018-12-31T23:04:31.984Z,111.63
2018-12-31T23:06:57.850Z,95.03
2018-12-31T23:09:25.527Z,145.63
2018-12-31T23:11:51.294Z,76.17
2018-12-31T23:14:17.197Z,99.90
2018-12-31T23:16:43.053Z,130.20
2018-12-31T23:19:08.807Z,31.63
2018-12-31T23:21:34.571Z,39.07
2018-12-31T23:24:02.234Z,33.17
2018-12-31T23:26:28.031Z,26.83
2018-12-31T23:28:53.799Z,35.30
2018-12-31T23:31:19.578Z,24.50
2018-12-31T23:33:45.330Z,28.27
2018-12-31T23:36:12.354Z,25.80
2018-12-31T23:38:38.931Z,20.03
2018-12-31T23:41:06.468Z,11.87
2018-12-31T23:43:32.242Z,15.43
2018-12-31T23:45:58.036Z,10.73
2018-12-31T23:48:23.819Z,8.37
2018-12-31T23:50:49.601Z,7.37
2018-12-31T23:53:15.359Z,7.23
2018-12-31T23:55:41.133Z,7.23
2018-12-31T23:58:06.886Z,7.00
